Time;durP1;ratioP1;P1;durP2;ratioP2;P2;SDS_P1;SDS_P2;PMS_P1;PMS_P2;Temp;Humidity;BMP_temperature;BMP_pressure;BME280_temperature;BME280_humidity;BME280_pressure;Samples;Min_cycle;Max_cycle;Signal;HPM_P1;HPM_P2
2024/01/14 00:00:46;;;;;;;7.88;2.92;;;;;;;-13.69;81.02;101050.03;10250733;29;20039;-70
2024/01/14 00:05:47;;;;;;;11.52;3.97;;;;;;;-13.58;80.70;101076.47;10251315;28;20043;-69
2024/01/14 00:10:47;;;;;;;8.82;4.35;;;;;;;-13.38;80.92;101122.47;10251557;29;20141;-69
2024/01/14 00:15:48;;;;;;;14.35;4.03;;;;;;;-13.60;81.18;101107.97;10251236;29;20039;-69
2024/01/14 00:20:49;;;;;;;16.15;3.75;;;;;;;-13.59;81.02;101114.75;10251085;29;20125;-70
2024/01/14 00:25:50;;;;;;;10.75;4.50;;;;;;;-13.64;81.07;101124.13;10252402;28;20078;-69
2024/01/14 00:30:51;;;;;;;11.20;4.47;;;;;;;-13.83;80.97;101123.22;10250252;29;20039;-69
2024/01/14 00:35:52;;;;;;;11.27;3.50;;;;;;;-13.95;81.12;101126.59;10251435;28;20039;-69
2024/01/14 00:40:52;;;;;;;13.13;4.32;;;;;;;-14.30;81.16;101070.31;10257727;28;20043;-69
2024/01/14 00:45:53;;;;;;;10.93;4.28;;;;;;;-14.12;80.97;101105.25;10260125;29;20070;-69
2024/01/14 00:51:12;;;;;;;10.48;4.30;;;;;;;-14.18;80.50;101113.75;10258968;28;20047;-69
2024/01/14 00:56:13;;;;;;;12.77;3.65;;;;;;;-14.28;81.02;101112.84;10258847;29;20043;-69
2024/01/14 01:01:14;;;;;;;12.20;3.80;;;;;;;-14.62;81.36;101058.31;10258685;29;20039;-69
2024/01/14 01:06:14;;;;;;;8.88;3.75;;;;;;;-14.41;80.85;101111.09;10257909;29;20043;-69
2024/01/14 01:11:19;;;;;;;13.75;4.05;;;;;;;-14.45;81.17;101111.91;10258518;29;20142;-70
2024/01/14 01:16:19;;;;;;;8.73;3.47;;;;;;;-14.55;80.78;101113.59;10258483;28;20047;-69
2024/01/14 01:21:20;;;;;;;10.65;3.28;;;;;;;-14.51;80.53;101109.38;10258002;29;20039;-69
2024/01/14 01:26:21;;;;;;;10.40;3.90;;;;;;;-14.56;80.26;101111.06;10257188;29;20090;-69
2024/01/14 01:31:21;;;;;;;11.00;3.40;;;;;;;-14.59;80.20;101113.59;10256943;29;20040;-69
2024/01/14 01:36:22;;;;;;;10.48;3.80;;;;;;;-14.58;80.17;101108.50;10255686;29;20035;-69
2024/01/14 01:41:23;;;;;;;14.55;3.17;;;;;;;-14.69;79.47;101115.22;10256561;28;20059;-69
2024/01/14 01:46:24;;;;;;;12.40;3.58;;;;;;;-14.65;79.70;101132.28;10254771;29;20530;-69
2024/01/14 01:51:25;;;;;;;7.65;3.13;;;;;;;-15.10;79.71;101080.13;10253788;28;20047;-69
2024/01/14 01:56:27;;;;;;;8.68;3.15;;;;;;;-15.05;80.21;101059.75;10254891;29;20051;-69
2024/01/14 02:01:28;;;;;;;8.27;3.85;;;;;;;-14.57;80.25;101122.09;10254762;29;20043;-69
2024/01/14 02:06:30;;;;;;;10.05;3.72;;;;;;;-14.58;80.44;101117.84;10253008;29;20042;-69
2024/01/14 02:11:30;;;;;;;10.27;4.05;;;;;;;-14.73;79.60;101116.06;10252844;28;20094;-70
2024/01/14 02:16:32;;;;;;;7.90;2.88;;;;;;;-14.97;79.15;101107.41;10254211;28;20047;-71
2024/01/14 02:21:38;;;;;;;8.70;3.40;;;;;;;-15.50;79.20;101056.03;10253146;29;20039;-69
2024/01/14 02:26:39;;;;;;;8.35;3.63;;;;;;;-15.43;79.61;101068.84;10251834;29;20051;-69
2024/01/14 02:31:39;;;;;;;11.73;4.15;;;;;;;-14.93;80.63;101110.81;10252165;28;20039;-70
2024/01/14 02:36:40;;;;;;;11.02;3.40;;;;;;;-15.48;80.10;101018.69;10251285;29;20062;-70
2024/01/14 02:41:41;;;;;;;6.60;3.08;;;;;;;-15.15;79.58;101108.97;10198407;29;1589386;-69
2024/01/14 02:46:42;;;;;;;8.98;3.00;;;;;;;-15.30;80.29;101092.72;10254203;28;20527;-69
2024/01/14 02:51:45;;;;;;;15.60;3.67;;;;;;;-15.22;80.34;101118.25;10253980;29;20047;-69
2024/01/14 02:56:46;;;;;;;15.30;3.45;;;;;;;-15.33;80.22;101102.03;10253154;29;20042;-70
2024/01/14 03:01:47;;;;;;;6.38;2.53;;;;;;;-15.14;80.71;101108.13;10252986;28;20047;-72
2024/01/14 03:06:48;;;;;;;8.50;3.15;;;;;;;-15.08;80.34;101116.66;10254685;29;20535;-69
2024/01/14 03:11:48;;;;;;;10.68;3.20;;;;;;;-15.08;80.43;101111.56;10253921;29;20043;-69
2024/01/14 03:16:49;;;;;;;5.85;2.20;;;;;;;-14.90;80.64;101115.94;10253805;29;20090;-70
2024/01/14 03:21:51;;;;;;;5.20;2.60;;;;;;;-14.76;80.81;101127.09;10253276;28;20046;-70
2024/01/14 03:26:53;;;;;;;5.20;2.50;;;;;;;-14.79;80.43;101124.50;10253882;28;20067;-69
2024/01/14 03:31:53;;;;;;;7.82;2.15;;;;;;;-15.02;79.49;101113.31;10253635;28;20051;-69
2024/01/14 03:36:54;;;;;;;5.93;2.42;;;;;;;-14.92;80.04;101117.63;10252283;29;20395;-69
2024/01/14 03:41:55;;;;;;;6.32;2.13;;;;;;;-14.73;80.54;101131.34;10252146;28;20118;-70
2024/01/14 03:46:55;;;;;;;4.72;2.15;;;;;;;-14.69;80.09;101129.66;10252994;28;20043;-70
2024/01/14 03:51:56;;;;;;;6.97;2.30;;;;;;;-15.02;80.24;101090.34;10251974;29;20047;-69
2024/01/14 03:56:57;;;;;;;8.20;2.58;;;;;;;-14.63;80.61;101130.56;10252922;29;20046;-69
2024/01/14 04:01:58;;;;;;;12.32;2.92;;;;;;;-14.50;80.34;101139.13;10251516;28;20075;-69
2024/01/14 04:06:58;;;;;;;13.32;2.67;;;;;;;-14.78;79.49;101133.88;10251955;28;20532;-69
2024/01/14 04:11:59;;;;;;;9.05;2.25;;;;;;;-14.83;79.44;101129.59;10250755;28;20058;-71
2024/01/14 04:17:01;;;;;;;6.45;2.17;;;;;;;-14.86;79.72;101143.19;10251174;28;20122;-69
2024/01/14 04:22:03;;;;;;;10.23;2.63;;;;;;;-14.79;79.96;101161.91;10250946;28;20181;-69
2024/01/14 04:27:04;;;;;;;9.30;2.70;;;;;;;-15.04;79.64;101155.78;10250958;28;20051;-71
2024/01/14 04:32:05;;;;;;;5.70;2.30;;;;;;;-15.14;79.33;101138.69;10250477;29;20031;-69
2024/01/14 04:37:06;;;;;;;7.47;2.10;;;;;;;-15.24;79.87;101095.31;10250606;28;20130;-69
2024/01/14 04:42:07;;;;;;;5.93;2.47;;;;;;;-14.78;80.42;101154.25;10251571;28;20145;-69
2024/01/14 04:47:08;;;;;;;7.00;2.17;;;;;;;-14.91;80.06;101126.13;10244849;28;20053;-69
2024/01/14 04:52:08;;;;;;;7.75;2.42;;;;;;;-14.91;79.52;101129.53;10250396;29;20528;-69
2024/01/14 04:57:09;;;;;;;5.43;2.20;;;;;;;-14.75;80.20;101143.22;10251180;29;20126;-68
2024/01/14 05:02:10;;;;;;;10.13;2.78;;;;;;;-14.65;80.20;101152.66;10250902;29;20043;-68
2024/01/14 05:07:10;;;;;;;5.85;2.20;;;;;;;-14.52;80.37;101153.59;10250853;29;20080;-68
2024/01/14 05:12:11;;;;;;;16.58;2.28;;;;;;;-14.14;81.15;101170.78;10251022;29;20039;-68
2024/01/14 05:17:12;;;;;;;9.13;2.75;;;;;;;-13.75;81.02;101159.03;10250860;28;20090;-68
2024/01/14 05:22:12;;;;;;;7.88;2.53;;;;;;;-13.37;80.52;101171.88;10249648;28;20040;-68
2024/01/14 05:27:14;;;;;;;6.13;2.03;;;;;;;-13.04;80.55;101180.41;10257375;28;20043;-71
2024/01/14 05:32:16;;;;;;;5.20;2.25;;;;;;;-12.88;79.92;101157.38;10257645;28;20065;-70
2024/01/14 05:37:17;;;;;;;10.90;2.75;;;;;;;-12.80;79.54;101125.81;10255628;29;20039;-69
2024/01/14 05:42:17;;;;;;;6.30;1.83;;;;;;;-12.22;79.72;101188.00;10252249;28;20063;-70
2024/01/14 05:47:18;;;;;;;7.72;2.25;;;;;;;-11.84;79.69;101183.59;10252763;28;20043;-69
2024/01/14 05:52:19;;;;;;;7.88;2.13;;;;;;;-11.72;79.61;101160.47;10253843;28;20043;-75
2024/01/14 05:57:20;;;;;;;7.15;2.15;;;;;;;-11.45;79.35;101179.13;10256467;28;20043;-70
2024/01/14 06:02:21;;;;;;;4.55;2.40;;;;;;;-11.20;79.44;101180.66;10255881;28;20035;-70
2024/01/14 06:07:22;;;;;;;5.32;2.22;;;;;;;-10.99;79.37;101174.53;10255928;29;20082;-68
2024/01/14 06:12:22;;;;;;;6.63;2.10;;;;;;;-10.69;79.19;101173.44;10255996;29;20035;-67
2024/01/14 06:17:23;;;;;;;5.15;2.22;;;;;;;-10.76;78.15;101148.69;10246230;29;20043;-69
2024/01/14 06:22:24;;;;;;;5.13;2.47;;;;;;;-10.60;78.09;101168.22;10223877;29;20051;-68
2024/01/14 06:27:26;;;;;;;4.78;2.30;;;;;;;-10.62;77.87;101138.28;10255553;28;20058;-68
2024/01/14 06:32:26;;;;;;;4.53;2.20;;;;;;;-10.31;77.62;101172.22;10254128;29;20159;-68
2024/01/14 06:37:27;;;;;;;4.70;2.40;;;;;;;-9.95;77.88;101194.06;10247059;28;20093;-67
2024/01/14 06:42:28;;;;;;;9.05;2.38;;;;;;;-9.70;77.58;101163.75;10251010;28;20066;-71
2024/01/14 06:47:28;;;;;;;5.90;2.45;;;;;;;-9.27;77.35;101188.91;10253972;29;20035;-67
2024/01/14 06:52:48;;;;;;;8.27;2.67;;;;;;;-9.30;76.67;101194.09;10251882;28;20454;-68
2024/01/14 06:57:48;;;;;;;8.20;3.00;;;;;;;-9.48;75.88;101137.72;10250327;29;20093;-69
2024/01/14 07:02:49;;;;;;;6.25;2.47;;;;;;;-8.98;75.55;101193.59;10252935;28;20057;-65
2024/01/14 07:07:50;;;;;;;6.10;2.65;;;;;;;-8.98;75.40;101174.72;10241417;28;20035;-69
2024/01/14 07:12:50;;;;;;;6.13;2.58;;;;;;;-8.46;75.27;101203.94;10226613;29;20079;-67
2024/01/14 07:17:51;;;;;;;7.03;2.63;;;;;;;-8.15;75.11;101199.06;10253735;28;20471;-72
2024/01/14 07:22:52;;;;;;;5.43;2.65;;;;;;;-8.07;74.10;101212.66;10253612;28;20047;-65
2024/01/14 07:27:52;;;;;;;11.52;2.80;;;;;;;-7.97;73.91;101218.50;10248341;28;20039;-63
2024/01/14 07:32:53;;;;;;;7.07;2.80;;;;;;;-7.89;74.09;101221.78;10250164;28;20043;-67
2024/01/14 07:37:54;;;;;;;4.85;1.95;;;;;;;-7.85;73.13;101177.00;10252258;28;20137;-66
2024/01/14 07:42:54;;;;;;;8.50;2.25;;;;;;;-7.70;71.81;101199.88;10252184;28;20055;-67
2024/01/14 07:47:55;;;;;;;5.88;2.67;;;;;;;-7.60;73.39;101203.13;10252244;28;20105;-75
2024/01/14 07:52:56;;;;;;;6.60;2.42;;;;;;;-7.30;72.34;101211.09;10253047;28;20065;-69
2024/01/14 07:57:57;;;;;;;6.45;2.83;;;;;;;-7.22;71.50;101206.63;10250405;29;20054;-69
2024/01/14 08:02:57;;;;;;;5.78;2.80;;;;;;;-7.22;70.99;101193.72;10251105;29;20495;-70
2024/01/14 08:07:58;;;;;;;13.93;2.70;;;;;;;-7.50;71.60;101127.22;10252332;28;20415;-71
2024/01/14 08:12:59;;;;;;;8.38;2.88;;;;;;;-6.94;70.99;101197.38;10238683;28;20050;-70
2024/01/14 08:18:00;;;;;;;9.10;2.95;;;;;;;-6.92;70.48;101182.66;10237107;29;20047;-69
2024/01/14 08:23:02;;;;;;;7.55;3.08;;;;;;;-6.75;70.68;101165.94;10231126;29;20035;-70
2024/01/14 08:28:03;;;;;;;6.50;2.78;;;;;;;-6.57;70.36;101173.22;10248086;28;20043;-69
2024/01/14 08:33:03;;;;;;;6.30;2.50;;;;;;;-6.49;70.17;101176.47;10251539;28;20043;-69
2024/01/14 08:38:04;;;;;;;8.25;2.80;;;;;;;-6.39;70.36;101160.72;10250048;28;20035;-69
2024/01/14 08:43:05;;;;;;;6.90;2.60;;;;;;;-6.55;69.43;101106.84;10251366;29;20062;-69
2024/01/14 08:48:06;;;;;;;10.15;2.72;;;;;;;-6.40;69.50;101117.63;10249520;28;20142;-71
2024/01/14 08:53:07;;;;;;;8.77;2.35;;;;;;;-6.38;69.59;101093.44;10250948;28;20655;-69
2024/01/14 08:58:07;;;;;;;8.85;2.47;;;;;;;-5.98;69.35;101129.41;10252274;28;20083;-70
2024/01/14 09:03:08;;;;;;;4.68;2.40;;;;;;;-6.01;69.54;101118.28;10258415;29;20043;-70
2024/01/14 09:08:09;;;;;;;6.43;2.67;;;;;;;-5.76;68.45;101139.09;10257114;28;20050;-70
2024/01/14 09:13:10;;;;;;;9.55;2.55;;;;;;;-5.91;68.07;101136.94;10259683;29;20071;-69
2024/01/14 09:18:11;;;;;;;5.53;2.22;;;;;;;-5.74;67.85;101135.56;10258846;29;20070;-70
2024/01/14 09:23:11;;;;;;;10.88;2.22;;;;;;;-5.82;66.97;101132.34;10257583;29;20109;-70
2024/01/14 09:28:12;;;;;;;6.57;2.50;;;;;;;-5.82;67.77;101141.84;10256708;29;20137;-70
2024/01/14 09:33:15;;;;;;;5.28;1.75;;;;;;;-5.79;67.54;101127.09;10256402;28;20122;-71
2024/01/14 09:38:16;;;;;;;8.63;2.35;;;;;;;-5.74;66.69;101134.72;10256620;29;20075;-71
2024/01/14 09:43:17;;;;;;;5.80;2.00;;;;;;;-6.07;67.21;101098.63;10253509;28;20067;-71
2024/01/14 09:48:18;;;;;;;6.60;2.10;;;;;;;-5.88;67.61;101106.66;10257089;28;20047;-71
2024/01/14 09:53:20;;;;;;;6.97;2.17;;;;;;;-5.66;67.55;101119.78;10247482;28;20044;-71
2024/01/14 09:58:21;;;;;;;8.18;2.08;;;;;;;-5.67;67.07;101110.34;10241539;28;20175;-70
2024/01/14 10:03:22;;;;;;;6.30;2.03;;;;;;;-5.68;67.71;101100.03;10255733;28;20047;-69
2024/01/14 10:08:23;;;;;;;6.10;1.80;;;;;;;-5.93;67.28;101030.94;10255615;29;20043;-70
2024/01/14 10:13:24;;;;;;;5.70;1.90;;;;;;;-5.54;67.38;101079.75;10255380;28;20039;-69
2024/01/14 10:18:25;;;;;;;5.47;2.03;;;;;;;-5.74;67.08;101072.63;10257104;29;20047;-69
2024/01/14 10:23:26;;;;;;;6.63;2.40;;;;;;;-5.83;68.01;101070.31;10255801;29;20043;-69
2024/01/14 10:28:36;;;;;;;9.13;2.30;;;;;;;-5.56;68.22;101082.41;10255841;29;20043;-69
2024/01/14 10:33:37;;;;;;;5.22;2.55;;;;;;;-5.49;68.17;101096.00;10254719;28;20041;-69
2024/01/14 10:38:38;;;;;;;15.63;2.97;;;;;;;-5.53;68.90;101074.53;10254766;29;20039;-70
2024/01/14 10:43:40;;;;;;;11.95;2.83;;;;;;;-5.58;68.53;101076.41;10255951;29;20487;-69
2024/01/14 10:48:43;;;;;;;6.32;2.63;;;;;;;-5.63;68.74;101073.13;10255455;29;20098;-69
2024/01/14 10:54:11;;;;;;;7.30;2.20;;;;;;;-5.81;69.42;101064.16;10255345;29;20043;-69
2024/01/14 10:59:14;;;;;;;7.75;2.60;;;;;;;-5.71;69.31;101071.66;10254408;28;20071;-70
2024/01/14 11:04:18;;;;;;;9.63;2.57;;;;;;;-6.02;69.33;101051.91;10252624;29;20094;-69
2024/01/14 11:09:19;;;;;;;7.82;2.85;;;;;;;-6.18;69.76;101066.19;10254343;28;20050;-68
2024/01/14 11:14:28;;;;;;;5.68;2.42;;;;;;;-6.40;70.39;101051.28;10252983;28;20043;-69
2024/01/14 11:19:35;;;;;;;8.50;3.10;;;;;;;-6.15;70.97;101077.28;10252496;28;20051;-71
2024/01/14 11:24:36;;;;;;;5.72;2.78;;;;;;;-6.16;71.08;101091.13;10243521;28;20452;-71
2024/01/14 11:29:40;;;;;;;4.68;2.58;;;;;;;-6.22;72.02;101115.41;10252563;28;20039;-69
2024/01/14 11:34:46;;;;;;;6.35;2.55;;;;;;;-6.04;72.50;101108.88;10247223;28;20056;-65
2024/01/14 11:39:47;;;;;;;6.90;2.70;;;;;;;-6.03;72.42;101113.16;10246204;28;20047;-67
2024/01/14 11:50:10;;;;;;;5.20;2.22;;;;;;;-6.16;74.05;101113.53;10222883;28;20052;-70
2024/01/14 11:55:15;;;;;;;5.15;2.42;;;;;;;-6.26;74.09;101105.19;10231463;29;20043;-78
2024/01/14 12:00:21;;;;;;;6.57;2.53;;;;;;;-6.35;74.62;101097.69;10222005;29;20091;-73
2024/01/14 12:05:24;;;;;;;4.03;1.85;;;;;;;-6.43;74.44;101090.16;10241890;29;20500;-72
2024/01/14 12:10:24;;;;;;;8.88;3.20;;;;;;;-6.18;74.69;101129.09;10250430;28;20579;-72
2024/01/14 12:15:26;;;;;;;8.23;2.60;;;;;;;-6.09;75.18;101128.84;10251310;29;20095;-74
2024/01/14 12:20:28;;;;;;;8.10;2.83;;;;;;;-6.09;75.25;101123.66;10251855;29;20042;-73
2024/01/14 12:25:29;;;;;;;5.85;2.75;;;;;;;-6.25;75.10;101107.75;10249745;29;20591;-70
2024/01/14 12:30:32;;;;;;;7.07;2.95;;;;;;;-6.22;75.05;101123.16;10251192;28;20138;-70
2024/01/14 12:35:37;;;;;;;14.55;2.67;;;;;;;-6.21;75.49;101131.78;10256843;28;20035;-71
2024/01/14 12:40:39;;;;;;;6.72;2.90;;;;;;;-6.23;76.19;101118.03;10258959;28;20058;-71
2024/01/14 12:45:47;;;;;;;5.78;2.60;;;;;;;-6.07;76.05;101128.78;10258533;28;20043;-71
2024/01/14 12:50:53;;;;;;;7.60;2.95;;;;;;;-6.48;76.29;101077.34;10259308;28;20050;-71
2024/01/14 12:56:14;;;;;;;9.45;2.70;;;;;;;-6.34;77.33;101110.59;10259224;28;20046;-72
2024/01/14 13:01:15;;;;;;;5.70;1.90;;;;;;;-6.49;77.16;101074.78;10258844;28;20051;-71
2024/01/14 13:06:16;;;;;;;5.38;2.30;;;;;;;-6.57;77.20;101056.06;10258794;28;20462;-71
2024/01/14 13:11:17;;;;;;;6.43;2.45;;;;;;;-6.44;77.75;101088.44;10258652;28;20112;-71
2024/01/14 13:16:17;;;;;;;12.50;2.83;;;;;;;-6.43;78.47;101097.91;10258814;28;20043;-71
2024/01/14 13:21:18;;;;;;;7.93;2.65;;;;;;;-6.57;78.83;101087.94;10256754;28;20523;-72
2024/01/14 13:26:19;;;;;;;7.75;2.80;;;;;;;-6.62;79.50;101101.84;10256149;29;20051;-72
2024/01/14 13:31:20;;;;;;;7.10;2.97;;;;;;;-6.84;79.94;101080.91;10257758;28;20035;-72
2024/01/14 13:36:21;;;;;;;6.15;2.38;;;;;;;-7.06;80.43;101054.75;10257336;29;20098;-70
2024/01/14 13:41:22;;;;;;;6.03;2.70;;;;;;;-6.76;81.05;101095.31;10257138;29;20059;-72
2024/01/14 13:46:23;;;;;;;8.63;2.75;;;;;;;-6.75;80.90;101075.50;10255939;28;20055;-73
2024/01/14 13:51:24;;;;;;;5.57;2.25;;;;;;;-6.88;81.00;101046.53;10257127;28;20067;-72
2024/01/14 13:56:25;;;;;;;8.57;2.85;;;;;;;-6.75;81.46;101067.75;10257372;29;20066;-71
2024/01/14 14:01:28;;;;;;;9.85;2.90;;;;;;;-6.80;81.54;101078.19;10255872;29;20051;-70
2024/01/14 14:06:31;;;;;;;15.17;2.90;;;;;;;-6.77;82.05;101079.84;10256318;29;20036;-70
2024/01/14 14:11:32;;;;;;;5.87;2.73;;;;;;;-6.79;82.32;101089.38;10257091;28;20102;-70
2024/01/14 14:16:34;;;;;;;6.60;2.60;;;;;;;-6.94;82.77;101065.66;10257001;29;20099;-71
2024/01/14 14:21:35;;;;;;;9.23;3.22;;;;;;;-6.85;82.88;101074.88;10255865;29;20039;-71
2024/01/14 14:26:35;;;;;;;6.65;2.78;;;;;;;-7.15;83.00;101030.00;10255709;28;20133;-71
2024/01/14 14:31:36;;;;;;;5.38;2.63;;;;;;;-6.87;82.88;101071.50;10254092;28;20559;-72
2024/01/14 14:36:38;;;;;;;8.88;3.08;;;;;;;-6.83;83.68;101091.19;10255521;29;20130;-71
2024/01/14 14:41:39;;;;;;;5.47;2.83;;;;;;;-6.98;83.25;101058.84;10252452;29;20071;-71
2024/01/14 14:46:40;;;;;;;8.70;2.97;;;;;;;-6.97;83.68;101062.28;10254393;28;20039;-72
2024/01/14 14:51:41;;;;;;;6.03;2.75;;;;;;;-6.77;83.90;101092.78;10252830;29;20519;-71
2024/01/14 14:56:42;;;;;;;9.00;2.90;;;;;;;-6.93;83.81;101067.34;10244867;28;20051;-71
2024/01/14 15:01:42;;;;;;;6.35;2.80;;;;;;;-6.97;84.43;101065.72;10249910;29;20047;-75
2024/01/14 15:06:44;;;;;;;8.30;2.92;;;;;;;-7.37;84.72;101004.75;10252675;29;20047;-72
2024/01/14 15:11:45;;;;;;;6.15;2.90;;;;;;;-6.96;85.21;101077.75;10253010;29;20051;-73
2024/01/14 15:16:46;;;;;;;6.90;2.75;;;;;;;-7.04;85.54;101061.59;10251811;29;20047;-74
2024/01/14 15:21:47;;;;;;;6.07;2.70;;;;;;;-7.16;85.23;101036.91;10252688;28;20039;-73
2024/01/14 15:26:48;;;;;;;9.30;3.35;;;;;;;-7.54;85.59;100978.50;10253076;28;20054;-72
2024/01/14 15:31:48;;;;;;;6.63;2.70;;;;;;;-7.16;85.80;101049.81;10252262;28;20507;-70
2024/01/14 15:36:49;;;;;;;6.60;3.40;;;;;;;-7.38;85.62;101010.81;10252500;28;20397;-69
2024/01/14 16:33:36;;;;;;;6.93;2.58;;;;;;;-6.98;86.68;100945.22;10246744;29;20055;-73
2024/01/14 16:38:37;;;;;;;6.00;3.20;;;;;;;-6.70;86.76;100976.31;10249737;29;20047;-72
2024/01/14 16:43:38;;;;;;;7.03;2.70;;;;;;;-6.69;86.90;100975.41;10248789;29;20055;-73
2024/01/14 16:48:39;;;;;;;6.80;3.15;;;;;;;-6.68;86.64;100971.09;10250465;29;20043;-73
2024/01/14 16:53:41;;;;;;;6.07;2.88;;;;;;;-6.66;86.60;100967.56;10250594;28;20562;-73
2024/01/14 16:58:43;;;;;;;6.35;2.58;;;;;;;-6.69;87.14;100952.16;10249317;28;20460;-73
2024/01/14 17:03:44;;;;;;;6.38;3.08;;;;;;;-6.48;86.90;100960.19;10250255;28;20055;-73
2024/01/14 17:08:46;;;;;;;6.90;2.92;;;;;;;-6.52;86.98;100924.97;10251291;28;20412;-74
2024/01/14 17:13:47;;;;;;;4.82;2.47;;;;;;;-6.85;87.07;100869.97;10249917;28;20047;-74
2024/01/14 17:18:49;;;;;;;9.75;2.65;;;;;;;-6.34;87.08;100939.06;10250023;28;20097;-74
2024/01/14 17:23:51;;;;;;;14.77;6.07;;;;;;;-6.10;86.83;100948.69;10257695;28;20043;-74
2024/01/14 17:28:52;;;;;;;21.38;7.93;;;;;;;-6.09;86.83;100946.97;10255774;28;20542;-74
2024/01/14 17:33:54;;;;;;;25.40;9.50;;;;;;;-6.05;86.98;100945.97;10250997;28;20055;-74
2024/01/14 17:38:54;;;;;;;21.63;7.53;;;;;;;-6.19;86.67;100894.69;10238534;29;20067;-75
2024/01/14 17:43:55;;;;;;;14.70;5.75;;;;;;;-5.83;86.85;100931.44;10251649;28;20456;-74
2024/01/14 17:48:56;;;;;;;12.57;5.30;;;;;;;-5.70;86.72;100934.44;10256659;28;20138;-74
2024/01/14 17:53:57;;;;;;;11.77;4.03;;;;;;;-5.94;86.70;100883.53;10256617;28;20067;-75
2024/01/14 17:58:58;;;;;;;11.00;4.00;;;;;;;-5.57;86.92;100929.72;10242760;28;20118;-76
2024/01/14 18:03:59;;;;;;;9.68;3.38;;;;;;;-5.73;87.03;100872.44;10241712;29;20522;-75
2024/01/14 18:09:00;;;;;;;5.90;2.75;;;;;;;-5.46;87.08;100908.66;10254541;29;20075;-75
2024/01/14 18:14:00;;;;;;;6.13;2.35;;;;;;;-5.57;87.52;100881.38;10256246;28;20118;-75
2024/01/14 18:19:01;;;;;;;10.25;2.90;;;;;;;-5.54;88.00;100886.44;10256016;29;20047;-74
2024/01/14 18:24:02;;;;;;;5.55;2.90;;;;;;;-5.44;88.16;100870.59;10256047;29;20408;-75
2024/01/14 18:29:03;;;;;;;8.40;3.00;;;;;;;-5.54;88.95;100846.78;10256134;28;20448;-73
2024/01/14 18:34:04;;;;;;;5.35;2.80;;;;;;;-5.48;89.77;100856.91;10255594;28;20043;-74
2024/01/14 18:39:06;;;;;;;6.80;2.97;;;;;;;-5.92;90.58;100767.88;10255462;29;20162;-74
2024/01/14 18:44:07;;;;;;;6.18;3.10;;;;;;;-5.40;91.27;100854.91;10254999;28;20086;-74
2024/01/14 18:49:08;;;;;;;7.57;2.85;;;;;;;-5.33;91.79;100863.28;10254671;29;20089;-74
2024/01/14 18:54:11;;;;;;;7.65;3.33;;;;;;;-5.25;92.41;100871.66;10254701;29;20045;-74
2024/01/14 18:59:12;;;;;;;8.83;3.90;;;;;;;-5.16;92.84;100852.34;10254125;29;20047;-74
2024/01/14 19:04:13;;;;;;;8.32;3.13;;;;;;;-5.12;93.13;100853.91;10254412;29;20166;-74
2024/01/14 19:09:14;;;;;;;7.68;3.28;;;;;;;-5.05;93.99;100855.41;10254909;28;20043;-74
2024/01/14 19:14:15;;;;;;;8.60;3.00;;;;;;;-5.09;94.70;100836.50;10253098;29;20039;-73
2024/01/14 19:19:16;;;;;;;7.00;3.78;;;;;;;-5.32;95.36;100788.16;10253753;29;20130;-73
2024/01/14 19:24:18;;;;;;;8.30;3.63;;;;;;;-5.03;96.14;100834.59;10253759;29;20137;-75
2024/01/14 19:29:20;;;;;;;6.53;3.42;;;;;;;-5.14;96.91;100809.94;10252982;29;20051;-74
2024/01/14 19:34:21;;;;;;;7.35;3.85;;;;;;;-5.09;97.28;100813.19;10252654;28;20063;-74
2024/01/14 19:39:22;;;;;;;7.50;3.80;;;;;;;-5.18;98.41;100817.88;10252244;29;20039;-74
2024/01/14 19:44:23;;;;;;;7.13;3.83;;;;;;;-5.24;98.73;100795.63;10252016;28;20067;-74
2024/01/14 19:49:25;;;;;;;8.07;3.90;;;;;;;-5.47;99.34;100754.19;10252283;29;20042;-74
2024/01/14 19:54:26;;;;;;;10.05;4.18;;;;;;;-5.25;99.73;100790.53;10245523;29;20055;-74
2024/01/14 19:59:27;;;;;;;8.80;4.10;;;;;;;-5.30;100.00;100775.97;10245356;29;20047;-73
2024/01/14 20:04:28;;;;;;;8.10;4.07;;;;;;;-5.36;100.00;100767.59;10250824;29;20459;-74
2024/01/14 20:09:28;;;;;;;8.52;3.88;;;;;;;-5.26;100.00;100766.38;10252179;28;20047;-74
2024/01/14 20:14:29;;;;;;;5.82;3.53;;;;;;;-5.25;100.00;100762.88;10250477;28;20460;-74
2024/01/14 20:19:30;;;;;;;7.35;3.63;;;;;;;-5.36;100.00;100762.44;10252207;29;20384;-74
2024/01/14 20:24:34;;;;;;;7.50;3.95;;;;;;;-5.47;100.00;100733.47;10251765;29;20492;-74
2024/01/14 20:29:53;;;;;;;13.32;4.05;;;;;;;-5.36;100.00;100739.13;10251000;29;20102;-74
2024/01/14 20:35:13;;;;;;;10.18;3.95;;;;;;;-5.35;100.00;100728.72;10250931;29;20042;-74
2024/01/14 20:40:16;;;;;;;7.57;3.67;;;;;;;-5.31;100.00;100717.34;10250952;28;20043;-74
2024/01/14 20:45:17;;;;;;;7.50;4.05;;;;;;;-5.26;100.00;100727.53;10251956;28;20082;-74
2024/01/14 20:50:18;;;;;;;9.05;4.93;;;;;;;-5.57;100.00;100673.47;10251451;29;20075;-75
2024/01/14 20:55:18;;;;;;;9.32;4.68;;;;;;;-5.53;100.00;100652.59;10254171;28;20067;-74
2024/01/14 21:00:19;;;;;;;7.82;4.28;;;;;;;-5.49;100.00;100648.13;10257931;29;20126;-74
2024/01/14 21:05:20;;;;;;;7.90;4.45;;;;;;;-5.20;100.00;100701.41;10258441;28;20415;-74
2024/01/14 21:10:21;;;;;;;9.07;4.43;;;;;;;-5.27;100.00;100692.16;10258825;29;20559;-74
2024/01/14 21:15:21;;;;;;;7.57;4.63;;;;;;;-5.33;100.00;100685.47;10258156;29;20036;-75
2024/01/14 21:20:22;;;;;;;9.90;4.60;;;;;;;-5.37;100.00;100678.72;10257003;29;20047;-74
2024/01/14 21:25:42;;;;;;;7.47;4.47;;;;;;;-5.40;100.00;100668.50;10257623;28;20109;-74
2024/01/14 21:30:42;;;;;;;7.28;4.38;;;;;;;-5.43;100.00;100640.13;10257573;28;20512;-74
2024/01/14 21:35:43;;;;;;;15.15;5.18;;;;;;;-5.58;100.00;100613.09;10257843;28;20050;-74
2024/01/14 21:40:44;;;;;;;11.52;5.00;;;;;;;-5.45;100.00;100654.03;10256722;29;20051;-74
2024/01/14 21:45:45;;;;;;;11.52;4.95;;;;;;;-5.53;100.00;100652.59;10257024;28;20146;-74
2024/01/14 21:50:46;;;;;;;10.10;4.95;;;;;;;-5.57;100.00;100658.75;10257327;29;20047;-74
2024/01/14 21:55:47;;;;;;;10.30;4.82;;;;;;;-5.79;100.00;100619.06;10257038;28;20050;-73
2024/01/14 22:00:48;;;;;;;11.95;5.00;;;;;;;-5.69;100.00;100628.16;10256420;29;20055;-75
2024/01/14 22:05:49;;;;;;;8.23;4.35;;;;;;;-5.64;100.00;100617.66;10255978;28;20126;-74
2024/01/14 22:10:50;;;;;;;8.15;4.30;;;;;;;-5.62;100.00;100606.34;10256503;29;20094;-74
2024/01/14 22:15:51;;;;;;;9.70;3.90;;;;;;;-5.51;100.00;100611.94;10256497;29;20058;-74
2024/01/14 22:20:51;;;;;;;10.23;4.88;;;;;;;-5.46;100.00;100596.25;10255341;29;20039;-74
2024/01/14 22:25:57;;;;;;;8.02;4.38;;;;;;;-5.58;100.00;100569.09;10255639;28;20043;-74
2024/01/14 22:30:57;;;;;;;8.93;4.72;;;;;;;-5.79;100.00;100526.78;10255832;28;20043;-74
2024/01/14 22:35:58;;;;;;;9.75;4.43;;;;;;;-5.52;100.00;100584.38;10256141;28;20566;-74
2024/01/14 22:40:59;;;;;;;11.20;5.72;;;;;;;-5.57;100.00;100588.88;10255214;29;20459;-74
2024/01/14 22:46:00;;;;;;;9.63;5.40;;;;;;;-5.62;100.00;100572.72;10254798;29;20047;-74
2024/01/14 22:51:01;;;;;;;10.40;5.38;;;;;;;-5.53;100.00;100577.53;10254682;29;20032;-74
2024/01/14 22:56:02;;;;;;;9.30;5.35;;;;;;;-5.58;100.00;100561.31;10254350;29;20039;-74
2024/01/14 23:01:02;;;;;;;9.85;5.05;;;;;;;-5.48;100.00;100560.94;10248699;29;20043;-75
2024/01/14 23:06:03;;;;;;;9.60;5.28;;;;;;;-5.43;100.00;100574.56;10215460;29;20054;-74
2024/01/14 23:11:04;;;;;;;13.85;5.78;;;;;;;-5.47;100.00;100555.72;10253846;28;20130;-74
2024/01/14 23:16:06;;;;;;;10.57;5.90;;;;;;;-5.39;100.00;100561.44;10253668;28;20039;-74
2024/01/14 23:21:06;;;;;;;13.93;6.13;;;;;;;-5.45;100.00;100556.50;10253295;29;20058;-74
2024/01/14 23:26:07;;;;;;;18.42;5.93;;;;;;;-5.60;100.00;100536.41;10252218;28;20054;-74
2024/01/14 23:31:27;;;;;;;10.77;5.43;;;;;;;-5.63;100.00;100546.88;10253719;28;20073;-75
2024/01/14 23:36:28;;;;;;;10.60;4.80;;;;;;;-5.78;100.00;100538.78;10253019;29;20102;-74
2024/01/14 23:41:28;;;;;;;8.93;4.95;;;;;;;-5.98;100.00;100490.47;10253274;28;20098;-74
2024/01/14 23:46:29;;;;;;;16.33;5.25;;;;;;;-5.98;100.00;100468.94;10252376;28;20039;-74
2024/01/14 23:51:30;;;;;;;9.48;4.72;;;;;;;-5.76;100.00;100489.59;10252903;28;20047;-74